Montvale, Virginia
Current Conditions -  °F | °C
As of 10:54 AM on Thursday 23 Oct 2014 (Local Time) from KROA Reporting Station
Few Clouds Few Clouds  
Wind Chill: 56°   Ceiling: Unl
Heat Index: 56°   Visibility: 10mi
Dew Point: 38°   Wind: 8mph
Humidity: 51%   Direction: 300°WNW
Pressure: 30.09"   Gusts: 18mph
Location:  37.38°N, 79.73°W
Report Text: KROA 231454Z 30007G16KT 10SM FEW038 13/03 A3009 RMK AO2 PK WND 31026/1412 SLP188 60000 T01330033 51007
Loading
Personal Weather Stations






























Interactive Weather Map
Tropical Storm Tracking
New forecast layout! Learn more

10-Day Weather Forecast

Advertisements
Track Severe Weather on mobile